sensor_id;sensor_type;location;lat;lon;timestamp;P1;durP1;ratioP1;P2;durP2;ratioP2
10977;SDS011;5542;48.272;10.794;2023-06-14T00:01:01;2.38;;;2.17;;
10977;SDS011;5542;48.272;10.794;2023-06-14T00:03:31;2.97;;;2.78;;
10977;SDS011;5542;48.272;10.794;2023-06-14T00:05:58;2.83;;;2.58;;
10977;SDS011;5542;48.272;10.794;2023-06-14T00:08:24;2.03;;;1.92;;
10977;SDS011;5542;48.272;10.794;2023-06-14T00:10:52;1.92;;;1.83;;
10977;SDS011;5542;48.272;10.794;2023-06-14T00:13:19;2.25;;;2.05;;
10977;SDS011;5542;48.272;10.794;2023-06-14T00:15:46;2.33;;;2.20;;
10977;SDS011;5542;48.272;10.794;2023-06-14T00:18:13;2.15;;;2.03;;
10977;SDS011;5542;48.272;10.794;2023-06-14T00:20:40;1.98;;;1.88;;
10977;SDS011;5542;48.272;10.794;2023-06-14T00:23:07;2.00;;;1.90;;
10977;SDS011;5542;48.272;10.794;2023-06-14T00:25:34;2.25;;;2.15;;
10977;SDS011;5542;48.272;10.794;2023-06-14T00:28:02;1.88;;;1.77;;
10977;SDS011;5542;48.272;10.794;2023-06-14T00:30:29;2.00;;;1.90;;
10977;SDS011;5542;48.272;10.794;2023-06-14T00:32:55;1.80;;;1.70;;
10977;SDS011;5542;48.272;10.794;2023-06-14T00:35:22;1.85;;;1.75;;
10977;SDS011;5542;48.272;10.794;2023-06-14T00:37:49;2.30;;;2.17;;
10977;SDS011;5542;48.272;10.794;2023-06-14T00:40:15;2.40;;;2.20;;
10977;SDS011;5542;48.272;10.794;2023-06-14T00:42:42;2.07;;;1.97;;
10977;SDS011;5542;48.272;10.794;2023-06-14T00:45:10;2.27;;;2.17;;
10977;SDS011;5542;48.272;10.794;2023-06-14T00:47:37;2.50;;;2.30;;
10977;SDS011;5542;48.272;10.794;2023-06-14T00:50:06;1.80;;;1.70;;
10977;SDS011;5542;48.272;10.794;2023-06-14T00:52:35;2.25;;;2.05;;
10977;SDS011;5542;48.272;10.794;2023-06-14T00:55:02;2.47;;;2.28;;
10977;SDS011;5542;48.272;10.794;2023-06-14T00:57:29;1.90;;;1.80;;
10977;SDS011;5542;48.272;10.794;2023-06-14T00:59:56;1.88;;;1.77;;
10977;SDS011;5542;48.272;10.794;2023-06-14T01:02:24;2.20;;;2.10;;
10977;SDS011;5542;48.272;10.794;2023-06-14T01:04:51;1.92;;;1.83;;
10977;SDS011;5542;48.272;10.794;2023-06-14T01:07:23;1.85;;;1.75;;
10977;SDS011;5542;48.272;10.794;2023-06-14T01:10:00;1.80;;;1.70;;
10977;SDS011;5542;48.272;10.794;2023-06-14T01:12:36;1.80;;;1.70;;
10977;SDS011;5542;48.272;10.794;2023-06-14T01:15:09;1.88;;;1.77;;
10977;SDS011;5542;48.272;10.794;2023-06-14T01:17:40;1.93;;;1.83;;
10977;SDS011;5542;48.272;10.794;2023-06-14T01:20:09;1.83;;;1.73;;
10977;SDS011;5542;48.272;10.794;2023-06-14T01:22:45;1.92;;;1.83;;
10977;SDS011;5542;48.272;10.794;2023-06-14T01:25:17;2.08;;;1.98;;
10977;SDS011;5542;48.272;10.794;2023-06-14T01:27:45;2.03;;;1.92;;
10977;SDS011;5542;48.272;10.794;2023-06-14T01:30:14;1.98;;;1.88;;
10977;SDS011;5542;48.272;10.794;2023-06-14T01:32:41;2.00;;;1.90;;
10977;SDS011;5542;48.272;10.794;2023-06-14T01:35:08;1.90;;;1.80;;
10977;SDS011;5542;48.272;10.794;2023-06-14T01:37:34;1.80;;;1.70;;
10977;SDS011;5542;48.272;10.794;2023-06-14T01:40:04;1.90;;;1.80;;
10977;SDS011;5542;48.272;10.794;2023-06-14T01:42:32;1.80;;;1.70;;
10977;SDS011;5542;48.272;10.794;2023-06-14T01:45:02;2.17;;;2.08;;
10977;SDS011;5542;48.272;10.794;2023-06-14T01:47:29;2.20;;;2.03;;
10977;SDS011;5542;48.272;10.794;2023-06-14T01:49:56;2.10;;;2.00;;
10977;SDS011;5542;48.272;10.794;2023-06-14T01:52:23;2.13;;;2.03;;
10977;SDS011;5542;48.272;10.794;2023-06-14T01:54:50;2.20;;;2.10;;
10977;SDS011;5542;48.272;10.794;2023-06-14T01:57:18;2.00;;;1.90;;
10977;SDS011;5542;48.272;10.794;2023-06-14T01:59:45;2.00;;;1.90;;
10977;SDS011;5542;48.272;10.794;2023-06-14T02:02:14;2.55;;;2.35;;
10977;SDS011;5542;48.272;10.794;2023-06-14T02:04:41;1.85;;;1.75;;
10977;SDS011;5542;48.272;10.794;2023-06-14T02:07:08;2.00;;;1.90;;
10977;SDS011;5542;48.272;10.794;2023-06-14T02:09:34;2.20;;;2.10;;
10977;SDS011;5542;48.272;10.794;2023-06-14T02:12:01;2.20;;;2.10;;
10977;SDS011;5542;48.272;10.794;2023-06-14T02:14:29;2.10;;;2.00;;
10977;SDS011;5542;48.272;10.794;2023-06-14T02:16:56;2.30;;;2.15;;
10977;SDS011;5542;48.272;10.794;2023-06-14T02:19:23;2.38;;;2.28;;
10977;SDS011;5542;48.272;10.794;2023-06-14T02:21:50;1.95;;;1.85;;
10977;SDS011;5542;48.272;10.794;2023-06-14T02:24:16;2.25;;;2.15;;
10977;SDS011;5542;48.272;10.794;2023-06-14T02:26:43;2.30;;;2.20;;
10977;SDS011;5542;48.272;10.794;2023-06-14T02:29:10;2.57;;;2.40;;
10977;SDS011;5542;48.272;10.794;2023-06-14T02:31:41;2.33;;;2.15;;
10977;SDS011;5542;48.272;10.794;2023-06-14T02:34:07;2.50;;;2.30;;
10977;SDS011;5542;48.272;10.794;2023-06-14T02:36:34;2.20;;;2.10;;
10977;SDS011;5542;48.272;10.794;2023-06-14T02:39:06;2.20;;;2.10;;
10977;SDS011;5542;48.272;10.794;2023-06-14T02:41:34;2.60;;;2.40;;
10977;SDS011;5542;48.272;10.794;2023-06-14T02:44:01;2.83;;;2.58;;
10977;SDS011;5542;48.272;10.794;2023-06-14T02:46:28;2.10;;;2.00;;
10977;SDS011;5542;48.272;10.794;2023-06-14T02:48:56;2.17;;;2.00;;
10977;SDS011;5542;48.272;10.794;2023-06-14T02:51:22;2.30;;;2.20;;
10977;SDS011;5542;48.272;10.794;2023-06-14T02:53:49;2.55;;;2.35;;
10977;SDS011;5542;48.272;10.794;2023-06-14T02:56:16;2.13;;;2.03;;
10977;SDS011;5542;48.272;10.794;2023-06-14T02:58:44;2.10;;;2.00;;
10977;SDS011;5542;48.272;10.794;2023-06-14T03:01:11;2.17;;;2.03;;
10977;SDS011;5542;48.272;10.794;2023-06-14T03:03:39;2.22;;;2.13;;
10977;SDS011;5542;48.272;10.794;2023-06-14T03:06:07;2.53;;;2.33;;
10977;SDS011;5542;48.272;10.794;2023-06-14T03:08:34;2.60;;;2.40;;
10977;SDS011;5542;48.272;10.794;2023-06-14T03:11:03;2.70;;;2.50;;
10977;SDS011;5542;48.272;10.794;2023-06-14T03:13:31;2.60;;;2.40;;
10977;SDS011;5542;48.272;10.794;2023-06-14T03:15:58;2.30;;;2.17;;
10977;SDS011;5542;48.272;10.794;2023-06-14T03:18:27;2.20;;;2.10;;
10977;SDS011;5542;48.272;10.794;2023-06-14T03:20:54;2.60;;;2.40;;
10977;SDS011;5542;48.272;10.794;2023-06-14T03:23:23;4.75;;;2.58;;
10977;SDS011;5542;48.272;10.794;2023-06-14T03:25:50;2.33;;;2.13;;
10977;SDS011;5542;48.272;10.794;2023-06-14T03:28:17;2.65;;;2.45;;
10977;SDS011;5542;48.272;10.794;2023-06-14T03:30:43;2.63;;;2.42;;
10977;SDS011;5542;48.272;10.794;2023-06-14T03:33:10;2.20;;;2.10;;
10977;SDS011;5542;48.272;10.794;2023-06-14T03:35:37;2.03;;;1.92;;
10977;SDS011;5542;48.272;10.794;2023-06-14T03:38:03;2.10;;;2.00;;
10977;SDS011;5542;48.272;10.794;2023-06-14T03:40:31;2.35;;;2.25;;
10977;SDS011;5542;48.272;10.794;2023-06-14T03:42:58;2.37;;;2.17;;
10977;SDS011;5542;48.272;10.794;2023-06-14T03:45:25;2.30;;;2.20;;
10977;SDS011;5542;48.272;10.794;2023-06-14T03:47:51;2.20;;;2.10;;
10977;SDS011;5542;48.272;10.794;2023-06-14T03:50:18;2.00;;;1.90;;
10977;SDS011;5542;48.272;10.794;2023-06-14T03:52:44;2.20;;;2.10;;
10977;SDS011;5542;48.272;10.794;2023-06-14T03:55:11;1.88;;;1.77;;
10977;SDS011;5542;48.272;10.794;2023-06-14T03:57:40;2.08;;;1.98;;
10977;SDS011;5542;48.272;10.794;2023-06-14T04:00:07;2.95;;;2.75;;
10977;SDS011;5542;48.272;10.794;2023-06-14T04:02:36;3.17;;;2.97;;
10977;SDS011;5542;48.272;10.794;2023-06-14T04:05:03;3.47;;;3.20;;
10977;SDS011;5542;48.272;10.794;2023-06-14T04:07:30;3.15;;;2.85;;
10977;SDS011;5542;48.272;10.794;2023-06-14T04:09:57;3.60;;;3.25;;
10977;SDS011;5542;48.272;10.794;2023-06-14T04:12:23;2.83;;;2.63;;
10977;SDS011;5542;48.272;10.794;2023-06-14T04:14:52;2.70;;;2.50;;
10977;SDS011;5542;48.272;10.794;2023-06-14T04:17:19;2.38;;;2.28;;
10977;SDS011;5542;48.272;10.794;2023-06-14T04:19:46;2.30;;;2.20;;
10977;SDS011;5542;48.272;10.794;2023-06-14T04:22:12;2.50;;;2.30;;
10977;SDS011;5542;48.272;10.794;2023-06-14T04:24:39;2.47;;;2.38;;
10977;SDS011;5542;48.272;10.794;2023-06-14T04:27:07;2.60;;;2.40;;
10977;SDS011;5542;48.272;10.794;2023-06-14T04:29:34;2.25;;;2.15;;
10977;SDS011;5542;48.272;10.794;2023-06-14T04:32:02;2.25;;;2.15;;
10977;SDS011;5542;48.272;10.794;2023-06-14T04:34:31;2.50;;;2.30;;
10977;SDS011;5542;48.272;10.794;2023-06-14T04:36:59;2.40;;;2.30;;
10977;SDS011;5542;48.272;10.794;2023-06-14T04:39:26;2.78;;;2.40;;
10977;SDS011;5542;48.272;10.794;2023-06-14T04:41:53;2.90;;;2.70;;
10977;SDS011;5542;48.272;10.794;2023-06-14T04:44:22;2.67;;;2.47;;
10977;SDS011;5542;48.272;10.794;2023-06-14T04:46:55;3.10;;;2.90;;
10977;SDS011;5542;48.272;10.794;2023-06-14T04:49:25;4.60;;;4.10;;
10977;SDS011;5542;48.272;10.794;2023-06-14T04:51:52;4.15;;;3.75;;
10977;SDS011;5542;48.272;10.794;2023-06-14T04:54:22;4.38;;;3.97;;
10977;SDS011;5542;48.272;10.794;2023-06-14T04:56:50;4.80;;;4.05;;
10977;SDS011;5542;48.272;10.794;2023-06-14T04:59:18;4.97;;;4.07;;
10977;SDS011;5542;48.272;10.794;2023-06-14T05:01:44;4.27;;;3.87;;
10977;SDS011;5542;48.272;10.794;2023-06-14T05:04:12;4.85;;;4.35;;
10977;SDS011;5542;48.272;10.794;2023-06-14T05:06:41;4.53;;;4.13;;
10977;SDS011;5542;48.272;10.794;2023-06-14T05:09:09;6.35;;;4.55;;
10977;SDS011;5542;48.272;10.794;2023-06-14T05:11:36;4.57;;;4.18;;
10977;SDS011;5542;48.272;10.794;2023-06-14T05:14:02;4.65;;;4.20;;
10977;SDS011;5542;48.272;10.794;2023-06-14T05:16:29;4.80;;;4.30;;
10977;SDS011;5542;48.272;10.794;2023-06-14T05:18:56;6.32;;;4.95;;
10977;SDS011;5542;48.272;10.794;2023-06-14T05:21:23;4.82;;;4.30;;
10977;SDS011;5542;48.272;10.794;2023-06-14T05:23:51;5.90;;;4.50;;
10977;SDS011;5542;48.272;10.794;2023-06-14T05:26:19;5.00;;;4.53;;
10977;SDS011;5542;48.272;10.794;2023-06-14T05:28:45;5.43;;;4.50;;
10977;SDS011;5542;48.272;10.794;2023-06-14T05:31:12;5.33;;;4.53;;
10977;SDS011;5542;48.272;10.794;2023-06-14T05:33:38;4.90;;;4.50;;
10977;SDS011;5542;48.272;10.794;2023-06-14T05:36:05;5.38;;;4.88;;
10977;SDS011;5542;48.272;10.794;2023-06-14T05:38:31;5.88;;;5.00;;
10977;SDS011;5542;48.272;10.794;2023-06-14T05:40:59;7.63;;;4.43;;
10977;SDS011;5542;48.272;10.794;2023-06-14T05:43:26;5.28;;;4.60;;
10977;SDS011;5542;48.272;10.794;2023-06-14T05:45:52;5.05;;;4.60;;
10977;SDS011;5542;48.272;10.794;2023-06-14T05:48:19;4.95;;;4.55;;
10977;SDS011;5542;48.272;10.794;2023-06-14T05:50:46;5.50;;;5.00;;
10977;SDS011;5542;48.272;10.794;2023-06-14T05:53:12;5.40;;;4.85;;
10977;SDS011;5542;48.272;10.794;2023-06-14T05:55:39;5.17;;;4.63;;
10977;SDS011;5542;48.272;10.794;2023-06-14T05:58:07;4.97;;;4.47;;
10977;SDS011;5542;48.272;10.794;2023-06-14T06:00:35;6.25;;;4.80;;
10977;SDS011;5542;48.272;10.794;2023-06-14T06:03:02;4.82;;;4.32;;
10977;SDS011;5542;48.272;10.794;2023-06-14T06:05:28;4.72;;;4.30;;
10977;SDS011;5542;48.272;10.794;2023-06-14T06:07:55;5.20;;;4.70;;
10977;SDS011;5542;48.272;10.794;2023-06-14T06:10:22;4.60;;;4.20;;
10977;SDS011;5542;48.272;10.794;2023-06-14T06:12:48;4.10;;;3.80;;
10977;SDS011;5542;48.272;10.794;2023-06-14T06:15:18;5.07;;;4.38;;
10977;SDS011;5542;48.272;10.794;2023-06-14T06:17:46;4.85;;;3.97;;
10977;SDS011;5542;48.272;10.794;2023-06-14T06:20:12;3.78;;;3.47;;
10977;SDS011;5542;48.272;10.794;2023-06-14T06:22:39;4.00;;;3.60;;
10977;SDS011;5542;48.272;10.794;2023-06-14T06:25:06;3.92;;;3.63;;
10977;SDS011;5542;48.272;10.794;2023-06-14T06:27:33;4.28;;;3.88;;
10977;SDS011;5542;48.272;10.794;2023-06-14T06:30:01;4.07;;;3.63;;
10977;SDS011;5542;48.272;10.794;2023-06-14T06:32:29;3.53;;;3.22;;
10977;SDS011;5542;48.272;10.794;2023-06-14T06:34:55;3.92;;;3.63;;
10977;SDS011;5542;48.272;10.794;2023-06-14T06:37:22;5.75;;;3.70;;
10977;SDS011;5542;48.272;10.794;2023-06-14T06:39:48;4.05;;;3.72;;
10977;SDS011;5542;48.272;10.794;2023-06-14T06:42:15;3.85;;;3.50;;
10977;SDS011;5542;48.272;10.794;2023-06-14T06:44:41;4.00;;;3.65;;
10977;SDS011;5542;48.272;10.794;2023-06-14T06:47:08;4.20;;;3.80;;
10977;SDS011;5542;48.272;10.794;2023-06-14T06:49:37;5.57;;;3.70;;
10977;SDS011;5542;48.272;10.794;2023-06-14T06:52:05;4.00;;;3.70;;
10977;SDS011;5542;48.272;10.794;2023-06-14T06:54:32;4.18;;;3.80;;
10977;SDS011;5542;48.272;10.794;2023-06-14T06:56:59;4.30;;;3.42;;
10977;SDS011;5542;48.272;10.794;2023-06-14T06:59:27;4.10;;;3.70;;
10977;SDS011;5542;48.272;10.794;2023-06-14T07:01:53;4.20;;;3.80;;
10977;SDS011;5542;48.272;10.794;2023-06-14T07:04:20;4.30;;;3.60;;
10977;SDS011;5542;48.272;10.794;2023-06-14T07:06:48;4.00;;;3.47;;
10977;SDS011;5542;48.272;10.794;2023-06-14T07:09:14;3.90;;;3.60;;
10977;SDS011;5542;48.272;10.794;2023-06-14T07:11:42;4.93;;;3.80;;
10977;SDS011;5542;48.272;10.794;2023-06-14T07:14:09;3.55;;;3.22;;
10977;SDS011;5542;48.272;10.794;2023-06-14T07:16:36;4.25;;;3.10;;
10977;SDS011;5542;48.272;10.794;2023-06-14T07:19:03;3.63;;;3.33;;
10977;SDS011;5542;48.272;10.794;2023-06-14T07:21:30;3.92;;;3.40;;
10977;SDS011;5542;48.272;10.794;2023-06-14T07:23:58;3.40;;;3.10;;
10977;SDS011;5542;48.272;10.794;2023-06-14T07:26:24;4.13;;;2.92;;
10977;SDS011;5542;48.272;10.794;2023-06-14T07:28:51;3.45;;;3.22;;
10977;SDS011;5542;48.272;10.794;2023-06-14T07:31:18;3.58;;;3.28;;
10977;SDS011;5542;48.272;10.794;2023-06-14T07:33:45;3.92;;;3.55;;
10977;SDS011;5542;48.272;10.794;2023-06-14T07:36:11;4.57;;;3.25;;
10977;SDS011;5542;48.272;10.794;2023-06-14T07:38:38;3.28;;;3.00;;
10977;SDS011;5542;48.272;10.794;2023-06-14T07:41:06;3.45;;;2.95;;
10977;SDS011;5542;48.272;10.794;2023-06-14T07:43:33;2.92;;;2.72;;
10977;SDS011;5542;48.272;10.794;2023-06-14T07:46:00;3.97;;;3.10;;
10977;SDS011;5542;48.272;10.794;2023-06-14T07:48:27;3.38;;;3.05;;
10977;SDS011;5542;48.272;10.794;2023-06-14T07:50:53;4.28;;;3.10;;
10977;SDS011;5542;48.272;10.794;2023-06-14T07:53:20;3.28;;;3.08;;
10977;SDS011;5542;48.272;10.794;2023-06-14T07:55:47;4.95;;;3.20;;
10977;SDS011;5542;48.272;10.794;2023-06-14T07:58:15;3.53;;;3.20;;
10977;SDS011;5542;48.272;10.794;2023-06-14T08:00:41;4.15;;;3.10;;
10977;SDS011;5542;48.272;10.794;2023-06-14T08:03:08;3.30;;;3.00;;
10977;SDS011;5542;48.272;10.794;2023-06-14T08:05:34;4.60;;;3.10;;
10977;SDS011;5542;48.272;10.794;2023-06-14T08:08:01;3.22;;;2.92;;
10977;SDS011;5542;48.272;10.794;2023-06-14T08:10:28;3.42;;;3.13;;
10977;SDS011;5542;48.272;10.794;2023-06-14T08:12:56;3.25;;;2.95;;
10977;SDS011;5542;48.272;10.794;2023-06-14T08:15:24;3.05;;;2.85;;
10977;SDS011;5542;48.272;10.794;2023-06-14T08:17:50;3.30;;;3.00;;
10977;SDS011;5542;48.272;10.794;2023-06-14T08:20:17;3.40;;;3.10;;
10977;SDS011;5542;48.272;10.794;2023-06-14T08:22:44;3.30;;;3.00;;
10977;SDS011;5542;48.272;10.794;2023-06-14T08:25:13;2.90;;;2.70;;
10977;SDS011;5542;48.272;10.794;2023-06-14T08:27:40;3.22;;;2.92;;
10977;SDS011;5542;48.272;10.794;2023-06-14T08:30:07;3.10;;;2.90;;
10977;SDS011;5542;48.272;10.794;2023-06-14T08:32:36;3.40;;;2.90;;
10977;SDS011;5542;48.272;10.794;2023-06-14T08:35:03;3.17;;;2.80;;
10977;SDS011;5542;48.272;10.794;2023-06-14T08:37:30;4.32;;;3.13;;
10977;SDS011;5542;48.272;10.794;2023-06-14T08:39:58;7.05;;;2.83;;
10977;SDS011;5542;48.272;10.794;2023-06-14T08:42:25;3.33;;;3.03;;
10977;SDS011;5542;48.272;10.794;2023-06-14T08:44:52;3.35;;;3.00;;
10977;SDS011;5542;48.272;10.794;2023-06-14T08:47:18;2.85;;;2.65;;
10977;SDS011;5542;48.272;10.794;2023-06-14T08:49:47;3.13;;;2.85;;
10977;SDS011;5542;48.272;10.794;2023-06-14T08:52:14;3.65;;;3.20;;
10977;SDS011;5542;48.272;10.794;2023-06-14T08:54:45;3.55;;;2.83;;
10977;SDS011;5542;48.272;10.794;2023-06-14T08:57:14;3.05;;;2.75;;
10977;SDS011;5542;48.272;10.794;2023-06-14T08:59:44;3.00;;;2.80;;
10977;SDS011;5542;48.272;10.794;2023-06-14T09:02:14;2.97;;;2.75;;
10977;SDS011;5542;48.272;10.794;2023-06-14T09:04:43;3.22;;;2.92;;
10977;SDS011;5542;48.272;10.794;2023-06-14T09:07:11;3.20;;;2.90;;
10977;SDS011;5542;48.272;10.794;2023-06-14T09:09:38;3.15;;;2.95;;
10977;SDS011;5542;48.272;10.794;2023-06-14T09:12:06;3.17;;;2.90;;
10977;SDS011;5542;48.272;10.794;2023-06-14T09:14:35;3.00;;;2.80;;
10977;SDS011;5542;48.272;10.794;2023-06-14T09:17:03;3.00;;;2.75;;
10977;SDS011;5542;48.272;10.794;2023-06-14T09:19:30;3.08;;;2.78;;
10977;SDS011;5542;48.272;10.794;2023-06-14T09:21:57;3.00;;;2.70;;
10977;SDS011;5542;48.272;10.794;2023-06-14T09:24:25;2.70;;;2.50;;
10977;SDS011;5542;48.272;10.794;2023-06-14T09:26:52;3.22;;;2.92;;
10977;SDS011;5542;48.272;10.794;2023-06-14T09:29:20;4.13;;;3.83;;
10977;SDS011;5542;48.272;10.794;2023-06-14T09:31:46;2.83;;;2.63;;
10977;SDS011;5542;48.272;10.794;2023-06-14T09:34:13;3.53;;;2.90;;
10977;SDS011;5542;48.272;10.794;2023-06-14T09:36:43;2.92;;;2.65;;
10977;SDS011;5542;48.272;10.794;2023-06-14T09:39:09;3.17;;;2.83;;
10977;SDS011;5542;48.272;10.794;2023-06-14T09:41:38;3.83;;;2.85;;
10977;SDS011;5542;48.272;10.794;2023-06-14T09:44:05;3.97;;;2.90;;
10977;SDS011;5542;48.272;10.794;2023-06-14T09:46:34;3.07;;;2.70;;
10977;SDS011;5542;48.272;10.794;2023-06-14T09:49:02;2.70;;;2.50;;
10977;SDS011;5542;48.272;10.794;2023-06-14T09:51:30;3.00;;;2.67;;
10977;SDS011;5542;48.272;10.794;2023-06-14T09:53:58;2.88;;;2.65;;
10977;SDS011;5542;48.272;10.794;2023-06-14T09:56:26;2.85;;;2.65;;
10977;SDS011;5542;48.272;10.794;2023-06-14T09:58:56;2.67;;;2.47;;
10977;SDS011;5542;48.272;10.794;2023-06-14T10:01:23;3.13;;;2.72;;
10977;SDS011;5542;48.272;10.794;2023-06-14T10:03:53;3.00;;;2.60;;
10977;SDS011;5542;48.272;10.794;2023-06-14T10:06:22;4.65;;;2.70;;
10977;SDS011;5542;48.272;10.794;2023-06-14T10:08:51;3.00;;;2.70;;
10977;SDS011;5542;48.272;10.794;2023-06-14T10:11:21;3.15;;;2.85;;
10977;SDS011;5542;48.272;10.794;2023-06-14T10:13:48;3.08;;;2.88;;
10977;SDS011;5542;48.272;10.794;2023-06-14T10:16:20;2.70;;;2.50;;
10977;SDS011;5542;48.272;10.794;2023-06-14T10:18:51;2.72;;;2.53;;
10977;SDS011;5542;48.272;10.794;2023-06-14T10:21:28;3.08;;;2.85;;
10977;SDS011;5542;48.272;10.794;2023-06-14T10:24:05;2.92;;;2.70;;
10977;SDS011;5542;48.272;10.794;2023-06-14T10:26:40;3.03;;;2.80;;
10977;SDS011;5542;48.272;10.794;2023-06-14T10:29:17;4.00;;;2.70;;
10977;SDS011;5542;48.272;10.794;2023-06-14T10:31:46;3.10;;;2.90;;
10977;SDS011;5542;48.272;10.794;2023-06-14T10:34:20;3.00;;;2.78;;
10977;SDS011;5542;48.272;10.794;2023-06-14T10:36:59;2.90;;;2.70;;
10977;SDS011;5542;48.272;10.794;2023-06-14T10:39:27;2.88;;;2.67;;
10977;SDS011;5542;48.272;10.794;2023-06-14T10:41:55;5.13;;;2.95;;
10977;SDS011;5542;48.272;10.794;2023-06-14T10:44:41;2.75;;;2.55;;
10977;SDS011;5542;48.272;10.794;2023-06-14T10:47:23;4.50;;;2.70;;
10977;SDS011;5542;48.272;10.794;2023-06-14T10:49:51;2.92;;;2.72;;
10977;SDS011;5542;48.272;10.794;2023-06-14T10:52:23;2.90;;;2.60;;
10977;SDS011;5542;48.272;10.794;2023-06-14T10:54:59;3.63;;;2.83;;
10977;SDS011;5542;48.272;10.794;2023-06-14T10:57:26;3.30;;;2.90;;
10977;SDS011;5542;48.272;10.794;2023-06-14T10:59:53;3.05;;;2.75;;
10977;SDS011;5542;48.272;10.794;2023-06-14T11:02:35;2.83;;;2.50;;
10977;SDS011;5542;48.272;10.794;2023-06-14T11:05:26;2.88;;;2.67;;
10977;SDS011;5542;48.272;10.794;2023-06-14T11:08:09;4.03;;;2.78;;
10977;SDS011;5542;48.272;10.794;2023-06-14T11:10:53;3.17;;;2.92;;
10977;SDS011;5542;48.272;10.794;2023-06-14T11:13:23;3.97;;;2.70;;
10977;SDS011;5542;48.272;10.794;2023-06-14T11:15:51;3.05;;;2.85;;
10977;SDS011;5542;48.272;10.794;2023-06-14T11:18:24;3.00;;;2.70;;
10977;SDS011;5542;48.272;10.794;2023-06-14T11:20:52;3.38;;;2.95;;
10977;SDS011;5542;48.272;10.794;2023-06-14T11:23:20;2.78;;;2.58;;
10977;SDS011;5542;48.272;10.794;2023-06-14T11:25:49;3.72;;;2.70;;
10977;SDS011;5542;48.272;10.794;2023-06-14T11:28:16;4.90;;;3.08;;
10977;SDS011;5542;48.272;10.794;2023-06-14T11:30:44;2.80;;;2.60;;
10977;SDS011;5542;48.272;10.794;2023-06-14T11:33:11;5.07;;;3.10;;
10977;SDS011;5542;48.272;10.794;2023-06-14T11:35:44;3.10;;;2.80;;
10977;SDS011;5542;48.272;10.794;2023-06-14T11:38:11;4.13;;;2.83;;
10977;SDS011;5542;48.272;10.794;2023-06-14T11:40:38;3.50;;;2.90;;
10977;SDS011;5542;48.272;10.794;2023-06-14T11:43:05;3.00;;;2.70;;
10977;SDS011;5542;48.272;10.794;2023-06-14T11:45:32;3.00;;;2.60;;
10977;SDS011;5542;48.272;10.794;2023-06-14T11:47:59;2.90;;;2.70;;
10977;SDS011;5542;48.272;10.794;2023-06-14T11:50:26;5.47;;;3.00;;
10977;SDS011;5542;48.272;10.794;2023-06-14T11:52:55;3.03;;;2.83;;
10977;SDS011;5542;48.272;10.794;2023-06-14T11:55:22;3.20;;;3.00;;
10977;SDS011;5542;48.272;10.794;2023-06-14T11:57:49;3.55;;;2.88;;
10977;SDS011;5542;48.272;10.794;2023-06-14T12:00:17;3.30;;;2.90;;
10977;SDS011;5542;48.272;10.794;2023-06-14T12:02:52;2.90;;;2.60;;
10977;SDS011;5542;48.272;10.794;2023-06-14T12:05:21;3.15;;;2.90;;
10977;SDS011;5542;48.272;10.794;2023-06-14T12:07:48;4.68;;;2.85;;
10977;SDS011;5542;48.272;10.794;2023-06-14T12:10:16;2.95;;;2.63;;
10977;SDS011;5542;48.272;10.794;2023-06-14T12:12:43;3.13;;;2.83;;
10977;SDS011;5542;48.272;10.794;2023-06-14T12:15:10;3.00;;;2.75;;
10977;SDS011;5542;48.272;10.794;2023-06-14T12:17:38;3.03;;;2.83;;
10977;SDS011;5542;48.272;10.794;2023-06-14T12:20:07;3.05;;;2.85;;
10977;SDS011;5542;48.272;10.794;2023-06-14T12:22:36;3.43;;;3.13;;
10977;SDS011;5542;48.272;10.794;2023-06-14T12:25:03;3.33;;;2.60;;
10977;SDS011;5542;48.272;10.794;2023-06-14T12:27:32;3.35;;;3.10;;
10977;SDS011;5542;48.272;10.794;2023-06-14T12:29:59;2.83;;;2.63;;
10977;SDS011;5542;48.272;10.794;2023-06-14T12:32:26;3.28;;;2.60;;
10977;SDS011;5542;48.272;10.794;2023-06-14T12:34:53;2.85;;;2.65;;
10977;SDS011;5542;48.272;10.794;2023-06-14T12:37:20;2.75;;;2.55;;
10977;SDS011;5542;48.272;10.794;2023-06-14T12:39:46;3.00;;;2.80;;
10977;SDS011;5542;48.272;10.794;2023-06-14T12:42:13;2.97;;;2.78;;
10977;SDS011;5542;48.272;10.794;2023-06-14T12:44:42;3.45;;;2.85;;
10977;SDS011;5542;48.272;10.794;2023-06-14T12:47:08;4.03;;;3.05;;
10977;SDS011;5542;48.272;10.794;2023-06-14T12:49:35;3.25;;;2.80;;
10977;SDS011;5542;48.272;10.794;2023-06-14T12:52:02;2.95;;;2.75;;
10977;SDS011;5542;48.272;10.794;2023-06-14T12:54:29;4.10;;;2.70;;
10977;SDS011;5542;48.272;10.794;2023-06-14T12:56:55;2.95;;;2.65;;
10977;SDS011;5542;48.272;10.794;2023-06-14T12:59:22;3.75;;;3.10;;
10977;SDS011;5542;48.272;10.794;2023-06-14T13:01:50;2.75;;;2.53;;
10977;SDS011;5542;48.272;10.794;2023-06-14T13:04:18;3.60;;;2.65;;
10977;SDS011;5542;48.272;10.794;2023-06-14T13:06:45;2.97;;;2.77;;
10977;SDS011;5542;48.272;10.794;2023-06-14T13:09:12;3.10;;;2.80;;
10977;SDS011;5542;48.272;10.794;2023-06-14T13:11:40;3.05;;;2.85;;
10977;SDS011;5542;48.272;10.794;2023-06-14T13:14:10;2.85;;;2.65;;
10977;SDS011;5542;48.272;10.794;2023-06-14T13:16:37;4.32;;;3.03;;
10977;SDS011;5542;48.272;10.794;2023-06-14T13:19:05;2.90;;;2.63;;
10977;SDS011;5542;48.272;10.794;2023-06-14T13:21:32;3.17;;;2.80;;
10977;SDS011;5542;48.272;10.794;2023-06-14T13:23:59;3.10;;;2.80;;
10977;SDS011;5542;48.272;10.794;2023-06-14T13:26:28;2.88;;;2.67;;
10977;SDS011;5542;48.272;10.794;2023-06-14T13:28:55;5.07;;;3.10;;
10977;SDS011;5542;48.272;10.794;2023-06-14T13:31:21;2.65;;;2.45;;
10977;SDS011;5542;48.272;10.794;2023-06-14T13:33:48;3.00;;;2.80;;
10977;SDS011;5542;48.272;10.794;2023-06-14T13:36:16;2.67;;;2.47;;
10977;SDS011;5542;48.272;10.794;2023-06-14T13:38:43;2.60;;;2.40;;
10977;SDS011;5542;48.272;10.794;2023-06-14T13:41:10;3.10;;;2.80;;
10977;SDS011;5542;48.272;10.794;2023-06-14T13:43:36;2.90;;;2.70;;
10977;SDS011;5542;48.272;10.794;2023-06-14T13:46:03;3.40;;;2.70;;
10977;SDS011;5542;48.272;10.794;2023-06-14T13:48:30;3.08;;;2.88;;
10977;SDS011;5542;48.272;10.794;2023-06-14T13:50:57;3.20;;;2.90;;
10977;SDS011;5542;48.272;10.794;2023-06-14T13:53:27;4.47;;;3.00;;
10977;SDS011;5542;48.272;10.794;2023-06-14T13:55:53;3.22;;;2.75;;
10977;SDS011;5542;48.272;10.794;2023-06-14T13:58:20;3.10;;;2.90;;
10977;SDS011;5542;48.272;10.794;2023-06-14T14:00:48;2.75;;;2.55;;
10977;SDS011;5542;48.272;10.794;2023-06-14T14:03:15;3.50;;;3.03;;
10977;SDS011;5542;48.272;10.794;2023-06-14T14:05:42;3.53;;;3.10;;
10977;SDS011;5542;48.272;10.794;2023-06-14T14:08:09;2.90;;;2.70;;
10977;SDS011;5542;48.272;10.794;2023-06-14T14:10:37;4.47;;;2.78;;
10977;SDS011;5542;48.272;10.794;2023-06-14T14:13:03;3.00;;;2.80;;
10977;SDS011;5542;48.272;10.794;2023-06-14T14:15:30;2.72;;;2.53;;
10977;SDS011;5542;48.272;10.794;2023-06-14T14:17:59;2.80;;;2.60;;
10977;SDS011;5542;48.272;10.794;2023-06-14T14:20:29;3.20;;;2.90;;
10977;SDS011;5542;48.272;10.794;2023-06-14T14:22:56;4.43;;;2.70;;
10977;SDS011;5542;48.272;10.794;2023-06-14T14:25:23;3.30;;;3.00;;
10977;SDS011;5542;48.272;10.794;2023-06-14T14:27:52;4.18;;;3.70;;
10977;SDS011;5542;48.272;10.794;2023-06-14T14:30:19;3.00;;;2.80;;
10977;SDS011;5542;48.272;10.794;2023-06-14T14:32:48;3.17;;;2.88;;
10977;SDS011;5542;48.272;10.794;2023-06-14T14:35:16;3.40;;;3.10;;
10977;SDS011;5542;48.272;10.794;2023-06-14T14:37:43;3.00;;;2.80;;
10977;SDS011;5542;48.272;10.794;2023-06-14T14:40:10;3.00;;;2.80;;
10977;SDS011;5542;48.272;10.794;2023-06-14T14:42:38;3.35;;;3.05;;
10977;SDS011;5542;48.272;10.794;2023-06-14T14:45:12;3.03;;;2.83;;
10977;SDS011;5542;48.272;10.794;2023-06-14T14:47:39;4.53;;;2.80;;
10977;SDS011;5542;48.272;10.794;2023-06-14T14:50:06;2.85;;;2.65;;
10977;SDS011;5542;48.272;10.794;2023-06-14T14:52:34;3.40;;;2.80;;